sensor_id;sensor_type;location;lat;lon;timestamp;temperature;humidity
21445;DHT22;10883;51.946;20.140;2023-01-30T00:01:22;1.30;99.90
21445;DHT22;10883;51.946;20.140;2023-01-30T00:03:48;1.30;99.90
21445;DHT22;10883;51.946;20.140;2023-01-30T00:06:15;1.30;99.90
21445;DHT22;10883;51.946;20.140;2023-01-30T00:08:40;1.30;99.90
21445;DHT22;10883;51.946;20.140;2023-01-30T00:11:10;1.30;99.90
21445;DHT22;10883;51.946;20.140;2023-01-30T00:13:36;1.30;99.90
21445;DHT22;10883;51.946;20.140;2023-01-30T00:16:02;1.30;99.90
21445;DHT22;10883;51.946;20.140;2023-01-30T00:18:28;1.30;99.90
21445;DHT22;10883;51.946;20.140;2023-01-30T00:20:55;1.30;99.90
21445;DHT22;10883;51.946;20.140;2023-01-30T00:23:21;1.30;99.90
21445;DHT22;10883;51.946;20.140;2023-01-30T00:25:47;1.30;99.90
21445;DHT22;10883;51.946;20.140;2023-01-30T00:28:12;1.20;99.90
21445;DHT22;10883;51.946;20.140;2023-01-30T00:30:38;1.30;99.90
21445;DHT22;10883;51.946;20.140;2023-01-30T00:33:04;1.20;99.90
21445;DHT22;10883;51.946;20.140;2023-01-30T00:35:29;1.30;99.90
21445;DHT22;10883;51.946;20.140;2023-01-30T00:37:58;1.20;99.90
21445;DHT22;10883;51.946;20.140;2023-01-30T00:40:25;1.30;99.90
21445;DHT22;10883;51.946;20.140;2023-01-30T00:42:51;1.30;99.90
21445;DHT22;10883;51.946;20.140;2023-01-30T00:45:36;1.30;99.90
21445;DHT22;10883;51.946;20.140;2023-01-30T00:48:22;1.40;99.90
21445;DHT22;10883;51.946;20.140;2023-01-30T00:50:47;1.40;99.90
21445;DHT22;10883;51.946;20.140;2023-01-30T00:53:14;1.40;99.90
21445;DHT22;10883;51.946;20.140;2023-01-30T00:55:41;1.40;99.90
21445;DHT22;10883;51.946;20.140;2023-01-30T00:58:08;1.40;99.90
21445;DHT22;10883;51.946;20.140;2023-01-30T01:00:34;1.30;99.90
21445;DHT22;10883;51.946;20.140;2023-01-30T01:03:00;1.30;99.90
21445;DHT22;10883;51.946;20.140;2023-01-30T01:05:27;1.30;99.90
21445;DHT22;10883;51.946;20.140;2023-01-30T01:07:53;1.30;99.90
21445;DHT22;10883;51.946;20.140;2023-01-30T01:10:19;1.30;99.90
21445;DHT22;10883;51.946;20.140;2023-01-30T01:12:46;1.20;99.90
21445;DHT22;10883;51.946;20.140;2023-01-30T01:15:13;1.20;99.90
21445;DHT22;10883;51.946;20.140;2023-01-30T01:17:40;1.20;99.90
21445;DHT22;10883;51.946;20.140;2023-01-30T01:20:08;1.10;99.90
21445;DHT22;10883;51.946;20.140;2023-01-30T01:22:34;1.10;99.90
21445;DHT22;10883;51.946;20.140;2023-01-30T01:25:00;1.10;99.90
21445;DHT22;10883;51.946;20.140;2023-01-30T01:27:26;1.00;99.90
21445;DHT22;10883;51.946;20.140;2023-01-30T01:29:53;1.00;99.90
21445;DHT22;10883;51.946;20.140;2023-01-30T01:32:20;1.00;99.90
21445;DHT22;10883;51.946;20.140;2023-01-30T01:34:45;1.00;99.90
21445;DHT22;10883;51.946;20.140;2023-01-30T01:37:11;1.00;99.90
21445;DHT22;10883;51.946;20.140;2023-01-30T01:39:37;1.00;99.90
21445;DHT22;10883;51.946;20.140;2023-01-30T01:42:24;0.90;99.90
21445;DHT22;10883;51.946;20.140;2023-01-30T01:45:09;0.90;99.90
21445;DHT22;10883;51.946;20.140;2023-01-30T01:50:30;0.90;99.90
21445;DHT22;10883;51.946;20.140;2023-01-30T01:53:02;0.90;99.90
21445;DHT22;10883;51.946;20.140;2023-01-30T01:55:28;1.00;99.90
21445;DHT22;10883;51.946;20.140;2023-01-30T01:58:06;1.00;99.90
21445;DHT22;10883;51.946;20.140;2023-01-30T02:00:33;1.00;99.90
21445;DHT22;10883;51.946;20.140;2023-01-30T02:03:02;1.00;99.90
21445;DHT22;10883;51.946;20.140;2023-01-30T02:05:32;1.00;99.90
21445;DHT22;10883;51.946;20.140;2023-01-30T02:07:59;1.00;99.90
21445;DHT22;10883;51.946;20.140;2023-01-30T02:10:39;1.00;99.90
21445;DHT22;10883;51.946;20.140;2023-01-30T02:13:05;1.00;99.90
21445;DHT22;10883;51.946;20.140;2023-01-30T02:15:32;1.00;99.90
21445;DHT22;10883;51.946;20.140;2023-01-30T02:17:58;1.00;99.90
21445;DHT22;10883;51.946;20.140;2023-01-30T02:20:39;1.00;99.90
21445;DHT22;10883;51.946;20.140;2023-01-30T02:26:54;1.00;99.90
21445;DHT22;10883;51.946;20.140;2023-01-30T02:46:16;1.00;99.90
21445;DHT22;10883;51.946;20.140;2023-01-30T02:48:26;0.90;99.90
21445;DHT22;10883;51.946;20.140;2023-01-30T02:51:04;0.90;99.90
21445;DHT22;10883;51.946;20.140;2023-01-30T02:53:32;0.80;99.90
21445;DHT22;10883;51.946;20.140;2023-01-30T02:55:58;0.80;99.90
21445;DHT22;10883;51.946;20.140;2023-01-30T02:58:26;0.80;99.90
21445;DHT22;10883;51.946;20.140;2023-01-30T03:09:23;0.70;99.90
21445;DHT22;10883;51.946;20.140;2023-01-30T03:14:59;0.80;99.90
21445;DHT22;10883;51.946;20.140;2023-01-30T03:17:26;0.70;99.90
21445;DHT22;10883;51.946;20.140;2023-01-30T03:19:54;0.70;99.90
21445;DHT22;10883;51.946;20.140;2023-01-30T03:22:21;0.70;99.90
21445;DHT22;10883;51.946;20.140;2023-01-30T03:24:48;0.70;99.90
21445;DHT22;10883;51.946;20.140;2023-01-30T03:27:14;0.70;99.90
21445;DHT22;10883;51.946;20.140;2023-01-30T03:29:40;0.70;99.90
21445;DHT22;10883;51.946;20.140;2023-01-30T03:32:06;0.60;99.90
21445;DHT22;10883;51.946;20.140;2023-01-30T03:34:32;0.60;99.90
21445;DHT22;10883;51.946;20.140;2023-01-30T03:36:57;0.60;99.90
21445;DHT22;10883;51.946;20.140;2023-01-30T03:39:24;0.60;99.90
21445;DHT22;10883;51.946;20.140;2023-01-30T03:41:51;0.60;99.90
21445;DHT22;10883;51.946;20.140;2023-01-30T03:44:17;0.60;99.90
21445;DHT22;10883;51.946;20.140;2023-01-30T03:46:42;0.60;99.90
21445;DHT22;10883;51.946;20.140;2023-01-30T03:49:08;0.60;99.90
21445;DHT22;10883;51.946;20.140;2023-01-30T03:51:34;0.60;99.90
21445;DHT22;10883;51.946;20.140;2023-01-30T03:54:00;0.60;99.90
21445;DHT22;10883;51.946;20.140;2023-01-30T03:56:25;0.60;99.90
21445;DHT22;10883;51.946;20.140;2023-01-30T03:58:51;0.60;99.90
21445;DHT22;10883;51.946;20.140;2023-01-30T04:01:17;0.60;99.90
21445;DHT22;10883;51.946;20.140;2023-01-30T04:03:43;0.60;99.90
21445;DHT22;10883;51.946;20.140;2023-01-30T04:06:09;0.60;99.90
21445;DHT22;10883;51.946;20.140;2023-01-30T04:08:34;0.60;99.90
21445;DHT22;10883;51.946;20.140;2023-01-30T04:11:00;0.60;99.90
21445;DHT22;10883;51.946;20.140;2023-01-30T04:13:26;0.50;99.90
21445;DHT22;10883;51.946;20.140;2023-01-30T04:15:52;0.60;99.90
21445;DHT22;10883;51.946;20.140;2023-01-30T04:18:17;0.60;99.90
21445;DHT22;10883;51.946;20.140;2023-01-30T04:20:44;0.60;99.90
21445;DHT22;10883;51.946;20.140;2023-01-30T04:23:10;0.60;99.90
21445;DHT22;10883;51.946;20.140;2023-01-30T04:25:35;0.60;99.90
21445;DHT22;10883;51.946;20.140;2023-01-30T04:28:01;0.60;99.90
21445;DHT22;10883;51.946;20.140;2023-01-30T04:30:27;0.50;99.90
21445;DHT22;10883;51.946;20.140;2023-01-30T04:32:53;0.50;99.90
21445;DHT22;10883;51.946;20.140;2023-01-30T04:35:18;0.50;99.90
21445;DHT22;10883;51.946;20.140;2023-01-30T04:37:44;0.50;99.90
21445;DHT22;10883;51.946;20.140;2023-01-30T04:40:10;0.40;99.90
21445;DHT22;10883;51.946;20.140;2023-01-30T04:42:36;0.40;99.90
21445;DHT22;10883;51.946;20.140;2023-01-30T04:45:02;0.40;99.90
21445;DHT22;10883;51.946;20.140;2023-01-30T04:47:28;0.40;99.90
21445;DHT22;10883;51.946;20.140;2023-01-30T04:49:54;0.40;99.90
21445;DHT22;10883;51.946;20.140;2023-01-30T04:52:19;0.40;99.90
21445;DHT22;10883;51.946;20.140;2023-01-30T04:54:45;0.30;99.90
21445;DHT22;10883;51.946;20.140;2023-01-30T04:57:11;0.30;99.90
21445;DHT22;10883;51.946;20.140;2023-01-30T04:59:36;0.40;99.90
21445;DHT22;10883;51.946;20.140;2023-01-30T05:02:02;0.40;99.90
21445;DHT22;10883;51.946;20.140;2023-01-30T05:04:28;0.30;99.90
21445;DHT22;10883;51.946;20.140;2023-01-30T05:06:54;0.30;99.90
21445;DHT22;10883;51.946;20.140;2023-01-30T05:09:19;0.30;99.90
21445;DHT22;10883;51.946;20.140;2023-01-30T05:11:45;0.30;99.90
21445;DHT22;10883;51.946;20.140;2023-01-30T05:14:11;0.30;99.90
21445;DHT22;10883;51.946;20.140;2023-01-30T05:16:36;0.30;99.90
21445;DHT22;10883;51.946;20.140;2023-01-30T05:19:02;0.30;99.90
21445;DHT22;10883;51.946;20.140;2023-01-30T05:21:28;0.30;99.90
21445;DHT22;10883;51.946;20.140;2023-01-30T05:23:55;0.30;99.90
21445;DHT22;10883;51.946;20.140;2023-01-30T05:26:21;0.30;99.90
21445;DHT22;10883;51.946;20.140;2023-01-30T05:28:55;0.30;99.90
21445;DHT22;10883;51.946;20.140;2023-01-30T05:31:22;0.30;99.90
21445;DHT22;10883;51.946;20.140;2023-01-30T05:33:49;0.30;99.90
21445;DHT22;10883;51.946;20.140;2023-01-30T05:36:18;0.40;99.90
21445;DHT22;10883;51.946;20.140;2023-01-30T05:38:44;0.40;99.90
21445;DHT22;10883;51.946;20.140;2023-01-30T05:41:12;0.40;99.90
21445;DHT22;10883;51.946;20.140;2023-01-30T05:43:38;0.40;99.90
21445;DHT22;10883;51.946;20.140;2023-01-30T05:46:05;0.40;99.90
21445;DHT22;10883;51.946;20.140;2023-01-30T05:48:32;0.40;99.90
21445;DHT22;10883;51.946;20.140;2023-01-30T05:50:58;0.30;99.90
21445;DHT22;10883;51.946;20.140;2023-01-30T05:53:27;0.40;99.90
21445;DHT22;10883;51.946;20.140;2023-01-30T05:56:01;0.40;99.90
21445;DHT22;10883;51.946;20.140;2023-01-30T05:58:29;0.40;99.90
21445;DHT22;10883;51.946;20.140;2023-01-30T06:00:59;0.40;99.90
21445;DHT22;10883;51.946;20.140;2023-01-30T06:03:26;0.40;99.90
21445;DHT22;10883;51.946;20.140;2023-01-30T06:05:52;0.40;99.90
21445;DHT22;10883;51.946;20.140;2023-01-30T06:08:17;0.40;99.90
21445;DHT22;10883;51.946;20.140;2023-01-30T06:10:43;0.40;99.90
21445;DHT22;10883;51.946;20.140;2023-01-30T06:13:09;0.40;99.90
21445;DHT22;10883;51.946;20.140;2023-01-30T06:15:38;0.50;99.90
21445;DHT22;10883;51.946;20.140;2023-01-30T06:18:04;0.40;99.90
21445;DHT22;10883;51.946;20.140;2023-01-30T06:20:29;0.40;99.90
21445;DHT22;10883;51.946;20.140;2023-01-30T06:22:55;0.50;99.90
21445;DHT22;10883;51.946;20.140;2023-01-30T06:25:21;0.50;99.90
21445;DHT22;10883;51.946;20.140;2023-01-30T06:27:47;0.50;99.90
21445;DHT22;10883;51.946;20.140;2023-01-30T06:30:13;0.50;99.90
21445;DHT22;10883;51.946;20.140;2023-01-30T06:32:39;0.50;99.90
21445;DHT22;10883;51.946;20.140;2023-01-30T06:35:06;0.50;99.90
21445;DHT22;10883;51.946;20.140;2023-01-30T06:37:32;0.50;99.90
21445;DHT22;10883;51.946;20.140;2023-01-30T06:39:57;0.50;99.90
21445;DHT22;10883;51.946;20.140;2023-01-30T06:42:23;0.40;99.90
21445;DHT22;10883;51.946;20.140;2023-01-30T06:44:49;0.30;99.90
21445;DHT22;10883;51.946;20.140;2023-01-30T06:47:14;0.30;99.90
21445;DHT22;10883;51.946;20.140;2023-01-30T06:49:40;0.30;99.90
21445;DHT22;10883;51.946;20.140;2023-01-30T06:52:06;0.20;99.90
21445;DHT22;10883;51.946;20.140;2023-01-30T06:54:32;0.20;99.90
21445;DHT22;10883;51.946;20.140;2023-01-30T06:56:57;0.30;99.90
21445;DHT22;10883;51.946;20.140;2023-01-30T06:59:23;0.20;99.90
21445;DHT22;10883;51.946;20.140;2023-01-30T07:01:49;0.20;99.90
21445;DHT22;10883;51.946;20.140;2023-01-30T07:04:15;0.30;99.90
21445;DHT22;10883;51.946;20.140;2023-01-30T07:06:40;0.30;99.90
21445;DHT22;10883;51.946;20.140;2023-01-30T07:09:06;0.40;99.90
21445;DHT22;10883;51.946;20.140;2023-01-30T07:11:32;0.40;99.90
21445;DHT22;10883;51.946;20.140;2023-01-30T07:13:58;0.40;99.90
21445;DHT22;10883;51.946;20.140;2023-01-30T07:16:23;0.40;99.90
21445;DHT22;10883;51.946;20.140;2023-01-30T07:18:54;0.50;99.90
21445;DHT22;10883;51.946;20.140;2023-01-30T07:21:25;0.50;99.90
21445;DHT22;10883;51.946;20.140;2023-01-30T07:23:52;0.50;99.90
21445;DHT22;10883;51.946;20.140;2023-01-30T07:26:18;0.50;99.90
21445;DHT22;10883;51.946;20.140;2023-01-30T07:28:43;0.50;99.90
21445;DHT22;10883;51.946;20.140;2023-01-30T07:31:09;0.50;99.90
21445;DHT22;10883;51.946;20.140;2023-01-30T07:33:35;0.50;99.90
21445;DHT22;10883;51.946;20.140;2023-01-30T07:36:01;0.50;99.90
21445;DHT22;10883;51.946;20.140;2023-01-30T07:38:26;0.50;99.90
21445;DHT22;10883;51.946;20.140;2023-01-30T07:40:52;0.50;99.90
21445;DHT22;10883;51.946;20.140;2023-01-30T07:43:18;0.40;99.90
21445;DHT22;10883;51.946;20.140;2023-01-30T07:45:46;0.40;99.90
21445;DHT22;10883;51.946;20.140;2023-01-30T07:48:15;0.30;99.90
21445;DHT22;10883;51.946;20.140;2023-01-30T07:50:42;0.20;99.90
21445;DHT22;10883;51.946;20.140;2023-01-30T07:53:10;0.20;99.90
21445;DHT22;10883;51.946;20.140;2023-01-30T07:55:36;0.10;99.90
21445;DHT22;10883;51.946;20.140;2023-01-30T07:58:02;0.10;99.90
21445;DHT22;10883;51.946;20.140;2023-01-30T08:00:29;0.10;99.90
21445;DHT22;10883;51.946;20.140;2023-01-30T08:02:55;0.00;99.90
21445;DHT22;10883;51.946;20.140;2023-01-30T08:05:21;0.10;99.90
21445;DHT22;10883;51.946;20.140;2023-01-30T08:07:46;0.10;99.90
21445;DHT22;10883;51.946;20.140;2023-01-30T08:10:13;0.00;99.90
21445;DHT22;10883;51.946;20.140;2023-01-30T08:12:39;0.00;99.90
21445;DHT22;10883;51.946;20.140;2023-01-30T08:15:07;0.00;99.90
21445;DHT22;10883;51.946;20.140;2023-01-30T08:17:33;0.00;99.90
21445;DHT22;10883;51.946;20.140;2023-01-30T08:19:59;0.00;99.90
21445;DHT22;10883;51.946;20.140;2023-01-30T08:22:24;0.10;99.90
21445;DHT22;10883;51.946;20.140;2023-01-30T08:24:50;0.10;99.90
21445;DHT22;10883;51.946;20.140;2023-01-30T08:27:16;0.10;99.90
21445;DHT22;10883;51.946;20.140;2023-01-30T08:29:43;0.20;99.90
21445;DHT22;10883;51.946;20.140;2023-01-30T08:32:09;0.20;99.90
21445;DHT22;10883;51.946;20.140;2023-01-30T08:34:35;0.20;99.90
21445;DHT22;10883;51.946;20.140;2023-01-30T08:37:01;0.20;99.90
21445;DHT22;10883;51.946;20.140;2023-01-30T08:39:27;0.20;99.90
21445;DHT22;10883;51.946;20.140;2023-01-30T08:41:53;0.10;99.90
21445;DHT22;10883;51.946;20.140;2023-01-30T08:44:19;0.10;99.90
21445;DHT22;10883;51.946;20.140;2023-01-30T08:46:44;0.10;99.90
21445;DHT22;10883;51.946;20.140;2023-01-30T08:49:10;0.10;99.90
21445;DHT22;10883;51.946;20.140;2023-01-30T08:51:37;0.10;99.90
21445;DHT22;10883;51.946;20.140;2023-01-30T08:54:03;0.00;99.90
21445;DHT22;10883;51.946;20.140;2023-01-30T08:56:32;0.00;99.90
21445;DHT22;10883;51.946;20.140;2023-01-30T08:58:57;-0.10;99.90
21445;DHT22;10883;51.946;20.140;2023-01-30T09:01:23;-0.20;99.90
21445;DHT22;10883;51.946;20.140;2023-01-30T09:03:49;-0.20;99.90
21445;DHT22;10883;51.946;20.140;2023-01-30T09:06:15;-0.20;99.90
21445;DHT22;10883;51.946;20.140;2023-01-30T09:08:41;-0.10;99.90
21445;DHT22;10883;51.946;20.140;2023-01-30T09:11:06;-0.10;99.90
21445;DHT22;10883;51.946;20.140;2023-01-30T09:13:33;0.00;99.90
21445;DHT22;10883;51.946;20.140;2023-01-30T09:15:59;0.00;99.90
21445;DHT22;10883;51.946;20.140;2023-01-30T09:18:25;0.10;99.90
21445;DHT22;10883;51.946;20.140;2023-01-30T09:20:51;0.10;99.90
21445;DHT22;10883;51.946;20.140;2023-01-30T09:23:17;0.20;99.90
21445;DHT22;10883;51.946;20.140;2023-01-30T09:25:46;0.20;99.90
21445;DHT22;10883;51.946;20.140;2023-01-30T09:28:12;0.20;99.90
21445;DHT22;10883;51.946;20.140;2023-01-30T09:30:38;0.20;99.90
21445;DHT22;10883;51.946;20.140;2023-01-30T09:33:04;0.30;99.90
21445;DHT22;10883;51.946;20.140;2023-01-30T09:35:29;0.30;99.90
21445;DHT22;10883;51.946;20.140;2023-01-30T09:37:55;0.30;99.90
21445;DHT22;10883;51.946;20.140;2023-01-30T09:40:27;0.40;99.90
21445;DHT22;10883;51.946;20.140;2023-01-30T09:43:18;0.40;99.90
21445;DHT22;10883;51.946;20.140;2023-01-30T09:45:58;0.40;99.90
21445;DHT22;10883;51.946;20.140;2023-01-30T09:56:37;0.50;99.90
21445;DHT22;10883;51.946;20.140;2023-01-30T09:59:04;0.50;99.90
21445;DHT22;10883;51.946;20.140;2023-01-30T10:01:38;0.60;99.90
21445;DHT22;10883;51.946;20.140;2023-01-30T10:07:30;0.60;99.90
21445;DHT22;10883;51.946;20.140;2023-01-30T10:12:27;0.70;99.90
21445;DHT22;10883;51.946;20.140;2023-01-30T10:23:52;0.70;99.90
21445;DHT22;10883;51.946;20.140;2023-01-30T10:26:23;0.70;99.90
21445;DHT22;10883;51.946;20.140;2023-01-30T10:31:29;0.80;99.90
21445;DHT22;10883;51.946;20.140;2023-01-30T10:34:13;0.80;99.90
21445;DHT22;10883;51.946;20.140;2023-01-30T10:36:57;0.80;99.90
21445;DHT22;10883;51.946;20.140;2023-01-30T10:42:36;0.90;99.90
21445;DHT22;10883;51.946;20.140;2023-01-30T10:45:16;0.90;99.90
21445;DHT22;10883;51.946;20.140;2023-01-30T10:50:25;0.90;99.90
21445;DHT22;10883;51.946;20.140;2023-01-30T10:53:21;0.90;99.90
21445;DHT22;10883;51.946;20.140;2023-01-30T11:01:23;1.00;99.90
21445;DHT22;10883;51.946;20.140;2023-01-30T11:03:55;1.10;99.90
21445;DHT22;10883;51.946;20.140;2023-01-30T11:06:24;1.10;99.90
21445;DHT22;10883;51.946;20.140;2023-01-30T11:08:54;1.20;99.90
21445;DHT22;10883;51.946;20.140;2023-01-30T11:14:07;1.30;99.90
21445;DHT22;10883;51.946;20.140;2023-01-30T11:16:47;1.30;99.90
21445;DHT22;10883;51.946;20.140;2023-01-30T11:19:14;1.40;99.90
21445;DHT22;10883;51.946;20.140;2023-01-30T11:21:41;1.40;99.90
21445;DHT22;10883;51.946;20.140;2023-01-30T11:24:17;1.30;99.90
21445;DHT22;10883;51.946;20.140;2023-01-30T11:26:44;1.30;99.90
21445;DHT22;10883;51.946;20.140;2023-01-30T11:29:31;1.30;99.90
21445;DHT22;10883;51.946;20.140;2023-01-30T11:32:06;1.20;99.90
21445;DHT22;10883;51.946;20.140;2023-01-30T11:34:36;1.30;99.90
21445;DHT22;10883;51.946;20.140;2023-01-30T11:37:31;1.30;99.90
21445;DHT22;10883;51.946;20.140;2023-01-30T11:39:57;1.30;99.90
21445;DHT22;10883;51.946;20.140;2023-01-30T11:42:30;1.30;99.90
21445;DHT22;10883;51.946;20.140;2023-01-30T11:44:59;1.40;99.90
21445;DHT22;10883;51.946;20.140;2023-01-30T11:47:27;1.40;99.90
21445;DHT22;10883;51.946;20.140;2023-01-30T11:49:58;1.40;99.90
21445;DHT22;10883;51.946;20.140;2023-01-30T11:52:33;1.50;99.90
21445;DHT22;10883;51.946;20.140;2023-01-30T11:55:09;1.60;99.90
21445;DHT22;10883;51.946;20.140;2023-01-30T11:57:46;1.60;99.90
21445;DHT22;10883;51.946;20.140;2023-01-30T12:00:24;1.60;99.90
21445;DHT22;10883;51.946;20.140;2023-01-30T12:02:53;1.70;99.90
21445;DHT22;10883;51.946;20.140;2023-01-30T12:08:52;1.70;99.90
21445;DHT22;10883;51.946;20.140;2023-01-30T12:10:59;1.70;99.90
21445;DHT22;10883;51.946;20.140;2023-01-30T12:13:34;1.70;99.90
21445;DHT22;10883;51.946;20.140;2023-01-30T12:24:59;1.60;99.90
21445;DHT22;10883;51.946;20.140;2023-01-30T12:27:58;1.60;99.90
21445;DHT22;10883;51.946;20.140;2023-01-30T12:33:04;1.60;99.90
21445;DHT22;10883;51.946;20.140;2023-01-30T12:36:06;1.60;99.90
21445;DHT22;10883;51.946;20.140;2023-01-30T12:41:41;1.70;99.90
21445;DHT22;10883;51.946;20.140;2023-01-30T12:55:29;1.80;99.90
21445;DHT22;10883;51.946;20.140;2023-01-30T13:20:00;1.80;99.90
21445;DHT22;10883;51.946;20.140;2023-01-30T13:22:46;1.80;99.90
21445;DHT22;10883;51.946;20.140;2023-01-30T13:25:35;1.80;99.90
21445;DHT22;10883;51.946;20.140;2023-01-30T13:28:13;1.70;99.90
21445;DHT22;10883;51.946;20.140;2023-01-30T13:30:41;1.70;99.90
21445;DHT22;10883;51.946;20.140;2023-01-30T13:33:12;1.70;99.90
21445;DHT22;10883;51.946;20.140;2023-01-30T13:35:44;1.70;99.90
21445;DHT22;10883;51.946;20.140;2023-01-30T13:38:17;1.70;99.90
21445;DHT22;10883;51.946;20.140;2023-01-30T13:40:45;1.70;99.90
21445;DHT22;10883;51.946;20.140;2023-01-30T13:45:47;1.80;99.90
21445;DHT22;10883;51.946;20.140;2023-01-30T14:08:31;1.90;99.90
21445;DHT22;10883;51.946;20.140;2023-01-30T14:10:58;1.90;99.90
21445;DHT22;10883;51.946;20.140;2023-01-30T14:13:25;1.90;99.90
21445;DHT22;10883;51.946;20.140;2023-01-30T14:16:03;2.00;99.90
21445;DHT22;10883;51.946;20.140;2023-01-30T14:18:34;2.00;99.90
21445;DHT22;10883;51.946;20.140;2023-01-30T14:21:15;2.00;99.90
21445;DHT22;10883;51.946;20.140;2023-01-30T14:24:03;2.00;99.90
21445;DHT22;10883;51.946;20.140;2023-01-30T14:45:58;2.10;99.90
21445;DHT22;10883;51.946;20.140;2023-01-30T14:54:08;2.10;99.90
21445;DHT22;10883;51.946;20.140;2023-01-30T14:57:14;2.10;99.90
21445;DHT22;10883;51.946;20.140;2023-01-30T15:07:31;2.10;99.90
21445;DHT22;10883;51.946;20.140;2023-01-30T15:32:38;2.30;99.90
21445;DHT22;10883;51.946;20.140;2023-01-30T15:37:49;2.40;99.90
21445;DHT22;10883;51.946;20.140;2023-01-30T15:48:48;2.50;99.90
21445;DHT22;10883;51.946;20.140;2023-01-30T15:51:24;2.50;99.90
21445;DHT22;10883;51.946;20.140;2023-01-30T15:53:52;2.60;99.90
21445;DHT22;10883;51.946;20.140;2023-01-30T15:56:22;2.60;99.90
21445;DHT22;10883;51.946;20.140;2023-01-30T15:58:50;2.60;99.90
21445;DHT22;10883;51.946;20.140;2023-01-30T16:01:19;2.60;99.90
21445;DHT22;10883;51.946;20.140;2023-01-30T16:03:47;2.60;99.90
21445;DHT22;10883;51.946;20.140;2023-01-30T16:06:26;2.70;99.90
21445;DHT22;10883;51.946;20.140;2023-01-30T16:08:57;2.70;99.90
21445;DHT22;10883;51.946;20.140;2023-01-30T16:11:40;2.70;99.90
21445;DHT22;10883;51.946;20.140;2023-01-30T16:14:11;2.70;99.90
21445;DHT22;10883;51.946;20.140;2023-01-30T16:16:58;2.70;99.90
21445;DHT22;10883;51.946;20.140;2023-01-30T16:19:33;2.70;99.90
21445;DHT22;10883;51.946;20.140;2023-01-30T16:22:15;2.70;99.90
21445;DHT22;10883;51.946;20.140;2023-01-30T16:24:45;2.80;99.90
21445;DHT22;10883;51.946;20.140;2023-01-30T16:27:33;2.80;99.90
21445;DHT22;10883;51.946;20.140;2023-01-30T16:30:04;2.80;99.90
21445;DHT22;10883;51.946;20.140;2023-01-30T16:32:34;2.70;99.90
21445;DHT22;10883;51.946;20.140;2023-01-30T16:37:49;2.60;99.90
21445;DHT22;10883;51.946;20.140;2023-01-30T16:41:01;2.50;99.90
21445;DHT22;10883;51.946;20.140;2023-01-30T16:43:21;2.40;99.90
21445;DHT22;10883;51.946;20.140;2023-01-30T16:48:32;2.20;99.90
21445;DHT22;10883;51.946;20.140;2023-01-30T16:53:28;2.10;99.90
21445;DHT22;10883;51.946;20.140;2023-01-30T16:56:08;2.20;99.90
21445;DHT22;10883;51.946;20.140;2023-01-30T16:58:36;2.30;99.90
21445;DHT22;10883;51.946;20.140;2023-01-30T17:01:05;2.30;99.90
21445;DHT22;10883;51.946;20.140;2023-01-30T17:03:37;2.40;99.90
21445;DHT22;10883;51.946;20.140;2023-01-30T17:06:17;2.50;99.90
21445;DHT22;10883;51.946;20.140;2023-01-30T17:08:48;2.50;99.90
21445;DHT22;10883;51.946;20.140;2023-01-30T17:11:40;2.60;99.90
21445;DHT22;10883;51.946;20.140;2023-01-30T17:17:20;2.70;99.90
21445;DHT22;10883;51.946;20.140;2023-01-30T17:19:41;2.80;99.90
21445;DHT22;10883;51.946;20.140;2023-01-30T17:22:17;2.80;99.90
21445;DHT22;10883;51.946;20.140;2023-01-30T17:24:49;2.80;99.90
21445;DHT22;10883;51.946;20.140;2023-01-30T17:27:15;2.90;99.90
21445;DHT22;10883;51.946;20.140;2023-01-30T17:29:42;2.90;99.90
21445;DHT22;10883;51.946;20.140;2023-01-30T17:32:12;3.00;99.90
21445;DHT22;10883;51.946;20.140;2023-01-30T17:34:38;3.00;99.90
21445;DHT22;10883;51.946;20.140;2023-01-30T17:37:05;3.00;99.90
21445;DHT22;10883;51.946;20.140;2023-01-30T17:39:34;3.00;99.90
21445;DHT22;10883;51.946;20.140;2023-01-30T17:42:00;3.00;99.90
21445;DHT22;10883;51.946;20.140;2023-01-30T17:44:27;3.00;99.90
21445;DHT22;10883;51.946;20.140;2023-01-30T17:46:54;3.00;99.90
21445;DHT22;10883;51.946;20.140;2023-01-30T17:49:22;3.00;99.90
21445;DHT22;10883;51.946;20.140;2023-01-30T17:51:51;3.00;99.90
21445;DHT22;10883;51.946;20.140;2023-01-30T17:54:17;2.90;99.90
21445;DHT22;10883;51.946;20.140;2023-01-30T17:56:47;3.00;99.90
21445;DHT22;10883;51.946;20.140;2023-01-30T17:59:18;3.00;99.90
21445;DHT22;10883;51.946;20.140;2023-01-30T18:01:46;3.00;99.90
21445;DHT22;10883;51.946;20.140;2023-01-30T18:04:13;3.00;99.90
21445;DHT22;10883;51.946;20.140;2023-01-30T18:06:41;3.00;99.90
21445;DHT22;10883;51.946;20.140;2023-01-30T18:09:15;3.10;99.90
21445;DHT22;10883;51.946;20.140;2023-01-30T18:11:44;3.10;99.90
21445;DHT22;10883;51.946;20.140;2023-01-30T18:14:09;3.10;99.90
21445;DHT22;10883;51.946;20.140;2023-01-30T18:16:35;3.10;99.90
21445;DHT22;10883;51.946;20.140;2023-01-30T18:19:03;3.10;99.90
21445;DHT22;10883;51.946;20.140;2023-01-30T18:21:31;3.10;99.90
21445;DHT22;10883;51.946;20.140;2023-01-30T18:23:57;3.10;99.90
21445;DHT22;10883;51.946;20.140;2023-01-30T18:26:23;3.10;99.90
21445;DHT22;10883;51.946;20.140;2023-01-30T18:28:49;3.10;99.90
21445;DHT22;10883;51.946;20.140;2023-01-30T18:31:15;3.10;99.90
21445;DHT22;10883;51.946;20.140;2023-01-30T18:33:41;3.00;99.90
21445;DHT22;10883;51.946;20.140;2023-01-30T18:36:11;3.10;99.90
21445;DHT22;10883;51.946;20.140;2023-01-30T18:38:37;3.10;99.90
21445;DHT22;10883;51.946;20.140;2023-01-30T18:41:08;3.10;99.90
21445;DHT22;10883;51.946;20.140;2023-01-30T18:43:34;3.10;99.90
21445;DHT22;10883;51.946;20.140;2023-01-30T18:46:12;3.10;99.90
21445;DHT22;10883;51.946;20.140;2023-01-30T18:48:39;3.10;99.90
21445;DHT22;10883;51.946;20.140;2023-01-30T18:51:24;3.00;99.90
21445;DHT22;10883;51.946;20.140;2023-01-30T18:53:52;3.00;99.90
21445;DHT22;10883;51.946;20.140;2023-01-30T18:56:27;3.10;99.90
21445;DHT22;10883;51.946;20.140;2023-01-30T18:58:54;3.00;99.90
21445;DHT22;10883;51.946;20.140;2023-01-30T19:01:25;3.10;99.90
21445;DHT22;10883;51.946;20.140;2023-01-30T19:03:56;3.10;99.90
21445;DHT22;10883;51.946;20.140;2023-01-30T19:06:23;3.00;99.90
21445;DHT22;10883;51.946;20.140;2023-01-30T19:08:49;3.00;99.90
21445;DHT22;10883;51.946;20.140;2023-01-30T19:11:17;3.10;99.90
21445;DHT22;10883;51.946;20.140;2023-01-30T19:14:02;3.00;99.90
21445;DHT22;10883;51.946;20.140;2023-01-30T19:16:30;3.10;99.90
21445;DHT22;10883;51.946;20.140;2023-01-30T19:18:57;3.00;99.90
21445;DHT22;10883;51.946;20.140;2023-01-30T19:21:23;3.00;99.90
21445;DHT22;10883;51.946;20.140;2023-01-30T19:23:49;3.10;99.90
21445;DHT22;10883;51.946;20.140;2023-01-30T19:26:16;3.10;99.90
21445;DHT22;10883;51.946;20.140;2023-01-30T19:28:43;3.10;99.90